Olympic National Park, WA

06:20 AM PST am 29. Januar 2015 (GMT -0800)
Lake Dawn | Change Station
CLOSE
Current Station
Persönliche Wetterstationen
Location: Port Angeles, WA
Höhe: 1864 ft
Wetterstationen in der Umgebung

Höhe 1864 ft 48.04 °N, 123.43 °W | Updated 5 minutes ago

Wolkig
Wolkig
34.7 °F
gefühlte 35 °F
N
1.6
Wind Wechselnd Wind aus Nordwest
Gusts 1.6 mph

Heute
Max. -- | schwach -- °F
--% Regenrisiko
Gestern
Max. -- | schwach -- °F
Precip. -- inch
7:45 AM 5:09 PM
Zweites Viertel, 74% visible
Druck 30.38 inch
Sichtweite 10.0 Meilen
Wolken Bedeckt 700 ft
Windchill 35 °F
Taupunkt 34 °F
Feuchtigkeit 99%
Regen 0.00 inch
Schneehöhe Nicht verfügbar..
UV 0 von 12
Pollen 4.70 von 12
Luftqualität Nicht verfügbar..
Flu Activity Nicht verfügbar..
METAR KCLM 291353Z AUTO 14003KT 10SM OVC007 07/05 A3037 RMK AO2 SLP287 T00670050 $

More Conditions Fewer Conditions

Druck 30.38 inch
Sichtweite 10.0 Meilen
Wolken Bedeckt 700 ft
Windchill 35 °F
Taupunkt 34 °F
Feuchtigkeit 99%
Regen 0.00 inch
Schneehöhe Nicht verfügbar..
UV 0 von 12
Pollen 4.70 von 12
Luftqualität Nicht verfügbar..
Flu Activity Nicht verfügbar..
METAR KCLM 291353Z AUTO 14003KT 10SM OVC007 07/05 A3037 RMK AO2 SLP287 T00670050 $

More Conditions Fewer Conditions

10-Day Weather Forecast

Almanac

Astronomie

Jan. 29, 2015 Aufgang Untergang
Genaue Zeit
Bürgerliche Dämmerung
Nautische Dämmerung
Astronomische Dämmerung
Mond
Länge des sichtbaren Lichts
Tageslänge
Tomorrow will be .
, % of the Moon is Illuminated

Heutige Rekorde

State Highs State Lows

Community

WunderPhotos

Upload Photos

1,791,434 Fotos hochgeladen!

WunderBlogs® & News

Nearby

Luftqualität

  Luftqualität LQ Index Schadstoff
Not available.

Schneehöhe

Station Depth Höhe

Erdbebenaktivität

Stadt Distance Mag. Time & Date
Minimum magnitude displayed is 2.5.

küstennahe Wassertemperaturen

Ort Temperatur

Wetterstationen in der Umgebung